Time;durP1;ratioP1;P1;durP2;ratioP2;P2;SDS_P1;SDS_P2;PMS_P1;PMS_P2;Temp;Humidity;BMP_temperature;BMP_pressure;BME280_temperature;BME280_humidity;BME280_pressure;Samples;Min_cycle;Max_cycle;Signal;HPM_P1;HPM_P2
2022/06/16 00:00:23;;;;;;;;;14.00;14.00;;;;;23.85;54.96;101190.66;146609;659;46021;-72
2022/06/16 00:03:15;;;;;;;;;18.25;16.25;;;;;23.82;55.63;101198.59;146605;599;47010;-72
2022/06/16 00:06:08;;;;;;;;;11.75;11.50;;;;;23.77;55.77;101196.81;146606;624;46010;-73
2022/06/16 00:09:00;;;;;;;;;13.00;13.00;;;;;23.76;56.23;101200.34;146607;633;46010;-74
2022/06/16 00:11:52;;;;;;;;;12.00;12.00;;;;;23.76;55.60;101195.94;146605;565;46020;-74
2022/06/16 00:14:44;;;;;;;;;12.50;12.25;;;;;23.74;55.85;101206.53;146605;613;47011;-78
2022/06/16 00:17:36;;;;;;;;;14.00;13.25;;;;;23.72;55.98;101210.03;146606;614;46010;-77
2022/06/16 00:20:29;;;;;;;;;14.50;12.25;;;;;23.64;56.01;101209.94;146605;609;46018;-76
2022/06/16 00:23:21;;;;;;;;;14.75;13.75;;;;;23.56;55.48;101202.87;146607;630;46011;-78
2022/06/16 00:26:18;;;;;;;;;15.50;15.00;;;;;23.29;55.62;101164.75;146608;599;46018;-78
2022/06/16 00:29:10;;;;;;;;;14.00;14.00;;;;;23.40;55.63;101202.78;146607;582;46010;-76
2022/06/16 00:32:03;;;;;;;;;14.25;14.25;;;;;23.39;55.86;101200.97;146606;576;46010;-78
2022/06/16 00:34:55;;;;;;;;;14.75;13.00;;;;;23.41;56.22;101204.53;146607;589;47010;-77
2022/06/16 00:37:48;;;;;;;;;14.00;14.00;;;;;23.36;56.69;101198.31;146608;592;45047;-78
2022/06/16 00:41:11;;;;;;;;;14.25;12.75;;;;;23.24;56.25;101195.59;146606;577;46030;-78
2022/06/16 00:44:19;;;;;;;;;16.75;13.75;;;;;23.17;56.94;101194.66;146607;594;46013;-78
2022/06/16 00:47:11;;;;;;;;;15.75;14.75;;;;;23.14;57.55;101197.28;146607;578;46020;-79
2022/06/16 00:50:08;;;;;;;;;15.00;12.50;;;;;23.13;57.31;101192.87;146605;592;46018;-79
2022/06/16 00:53:12;;;;;;;;;12.50;12.00;;;;;23.16;57.49;101190.25;146609;596;46012;-80
2022/06/16 00:56:04;;;;;;;;;14.75;13.50;;;;;23.20;56.86;101189.41;146607;618;46010;-79
2022/06/16 00:59:05;;;;;;;;;14.00;14.00;;;;;23.22;56.31;101192.94;146605;668;46021;-73
2022/06/16 01:01:58;;;;;;;;;13.50;13.50;;;;;23.23;57.31;101186.78;146606;566;46010;-72
2022/06/16 01:04:53;;;;;;;;;15.25;15.00;;;;;23.17;57.29;101186.72;146607;592;46012;-72
2022/06/16 01:07:48;;;;;;;;;14.50;11.00;;;;;23.10;57.27;101184.94;146607;581;46011;-71
2022/06/16 01:10:50;;;;;;;;;15.00;13.50;;;;;23.10;56.63;101189.34;146605;561;47012;-70
2022/06/16 01:13:55;;;;;;;;;15.00;15.00;;;;;23.10;56.72;101184.06;146603;578;46018;-72
2022/06/16 01:16:51;;;;;;;;;15.25;15.25;;;;;23.02;56.94;101181.31;146605;627;46020;-71
2022/06/16 01:20:10;;;;;;;;;15.25;13.50;;;;;22.95;56.55;101179.53;146607;580;46010;-76
2022/06/16 01:23:40;;;;;;;;;16.25;13.50;;;;;22.85;56.52;101178.53;146608;639;46010;-73
2022/06/16 01:27:13;;;;;;;;;16.00;15.25;;;;;21.66;55.97;100981.06;146607;624;46018;-73
2022/06/16 01:30:22;;;;;;;;;16.00;13.25;;;;;22.78;55.84;101179.37;146608;652;46010;-82
2022/06/16 01:33:40;;;;;;;;;13.50;13.50;;;;;22.80;56.04;101172.31;146611;571;45018;-83
2022/06/16 01:37:15;;;;;;;;;16.00;15.25;;;;;22.85;55.83;101175.87;146610;613;46011;-81
2022/06/16 01:40:44;;;;;;;;;14.00;12.75;;;;;22.98;55.58;101183.06;146609;611;46010;-82
2022/06/16 01:44:04;;;;;;;;;15.75;15.75;;;;;23.07;55.66;101174.31;146611;601;45021;-82
2022/06/16 01:47:03;;;;;;;;;12.50;12.50;;;;;23.14;55.48;101173.47;146608;563;46010;-77
2022/06/16 01:50:04;;;;;;;;;15.75;13.75;;;;;23.17;55.92;101176.16;146606;627;46010;-76
2022/06/16 01:53:06;;;;;;;;;18.00;16.00;;;;;23.22;55.50;101181.50;146607;607;46010;-73
2022/06/16 01:56:09;;;;;;;;;15.25;13.00;;;;;23.23;55.90;101183.25;146608;572;47010;-74
2022/06/16 01:59:07;;;;;;;;;16.75;15.50;;;;;23.24;56.01;101180.62;146608;666;46010;-73
2022/06/16 02:02:11;;;;;;;;;18.00;16.75;;;;;23.25;56.73;101178.88;146609;578;46010;-75
2022/06/16 02:05:15;;;;;;;;;16.25;15.25;;;;;23.15;56.40;101182.34;146609;582;46010;-74
2022/06/16 02:08:16;;;;;;;;;12.75;12.75;;;;;;;;146609;607;46012;-75
2022/06/16 02:11:22;;;;;;;;;17.75;16.00;;;;;23.07;56.61;101190.19;146606;714;46020;-75
2022/06/16 02:14:27;;;;;;;;;12.75;12.25;;;;;23.02;56.59;101189.25;146607;594;47008;-74
2022/06/16 02:17:19;;;;;;;;;13.00;12.00;;;;;22.95;57.59;101185.69;146606;625;46008;-74
2022/06/16 02:20:13;;;;;;;;;13.75;13.50;;;;;22.85;58.69;101193.53;146608;563;46008;-84
2022/06/16 02:23:05;;;;;;;;;15.50;14.50;;;;;22.73;58.29;101189.87;146607;576;46021;-78
2022/06/16 02:25:59;;;;;;;;;16.00;15.00;;;;;22.67;58.96;101188.94;146605;577;46018;-81
2022/06/16 02:29:00;;;;;;;;;13.00;12.50;;;;;22.64;58.25;101195.09;146607;608;46021;-81
2022/06/16 02:32:37;;;;;;;;;15.00;13.75;;;;;22.64;58.51;101188.91;146607;579;46026;-74
2022/06/16 02:35:41;;;;;;;;;14.50;13.00;;;;;22.62;58.73;101188.91;146608;578;46020;-74
2022/06/16 02:39:02;;;;;;;;;14.00;13.25;;;;;22.66;58.24;101192.47;146607;645;47008;-75
2022/06/16 02:42:25;;;;;;;;;14.25;14.00;;;;;22.72;58.61;101197.81;146608;717;47008;-83
2022/06/16 02:45:42;;;;;;;;;15.75;14.75;;;;;22.76;57.55;101195.19;146611;578;45010;-79
2022/06/16 02:49:03;;;;;;;;;14.25;12.00;;;;;22.81;57.82;101201.44;146605;628;46020;-79
2022/06/16 02:52:38;;;;;;;;;12.75;12.75;;;;;21.68;57.26;101011.03;146605;631;46023;-77
2022/06/16 02:55:41;;;;;;;;;13.50;12.75;;;;;22.79;58.70;101200.50;146606;642;46020;-82
2022/06/16 02:58:37;;;;;;;;;15.00;15.00;;;;;22.85;58.55;101212.91;146607;614;47008;-81
2022/06/16 03:01:29;;;;;;;;;15.75;14.50;;;;;22.90;58.76;101215.59;146610;701;47008;-83
2022/06/16 03:04:22;;;;;;;;;11.00;10.50;;;;;22.96;58.66;101223.59;146616;587;45018;-80
2022/06/16 03:07:16;;;;;;;;;12.25;12.25;;;;;23.00;58.90;101222.78;146611;572;46008;-78
2022/06/16 03:10:10;;;;;;;;;9.25;8.75;;;;;22.99;58.32;101216.59;146616;566;46008;-77
2022/06/16 03:13:02;;;;;;;;;15.00;14.75;;;;;22.98;59.02;101221.84;146609;624;46020;-78
2022/06/16 03:15:56;;;;;;;;;15.50;15.25;;;;;22.85;59.58;101212.91;146606;616;46923;-82
2022/06/16 03:18:48;;;;;;;;;13.75;13.75;;;;;22.72;59.83;101216.31;146609;602;45048;-78
2022/06/16 03:21:39;;;;;;;;;13.50;13.50;;;;;22.58;59.40;101203.84;146608;622;46018;-75
2022/06/16 03:24:32;;;;;;;;;15.00;13.75;;;;;22.51;59.96;101212.59;146609;601;46020;-74
2022/06/16 03:27:24;;;;;;;;;16.25;15.25;;;;;22.47;60.47;101210.78;146609;582;46008;-74
2022/06/16 03:30:16;;;;;;;;;15.75;14.75;;;;;22.39;60.92;101223.03;146609;579;46020;-75
2022/06/16 03:33:11;;;;;;;;;16.00;14.00;;;;;22.31;60.29;101233.53;146610;579;46018;-74
2022/06/16 03:36:03;;;;;;;;;18.50;18.50;;;;;22.26;60.75;101243.16;146607;591;46021;-72
2022/06/16 03:38:55;;;;;;;;;19.00;15.75;;;;;22.26;61.16;101251.06;146612;675;45018;-68
2022/06/16 03:41:47;;;;;;;;;15.25;13.75;;;;;22.27;61.23;101241.38;146610;618;46008;-69
2022/06/16 03:44:40;;;;;;;;;16.75;16.25;;;;;22.30;61.11;101249.34;146609;676;46019;-69
2022/06/16 03:47:32;;;;;;;;;14.75;13.50;;;;;22.33;61.08;101237.06;146610;563;46020;-69
2022/06/16 03:50:24;;;;;;;;;16.00;16.00;;;;;22.41;61.04;101241.56;146611;564;46008;-69
2022/06/16 03:53:16;;;;;;;;;16.00;13.25;;;;;22.49;61.48;101238.13;146607;579;46021;-69
2022/06/16 03:56:10;;;;;;;;;16.50;15.25;;;;;22.54;61.37;101241.69;146609;676;46008;-69
2022/06/16 03:59:02;;;;;;;;;18.50;18.00;;;;;22.62;60.58;101240.87;146612;583;46008;-68
2022/06/16 04:01:53;;;;;;;;;15.00;15.00;;;;;22.70;60.36;101234.78;146612;579;46018;-68
2022/06/16 04:04:46;;;;;;;;;15.25;14.00;;;;;22.77;60.10;101230.44;146612;675;46010;-69
2022/06/16 04:07:39;;;;;;;;;18.25;15.75;;;;;22.83;60.51;101233.16;146611;577;45044;-69
2022/06/16 04:10:31;;;;;;;;;16.00;14.00;;;;;22.91;60.56;101236.75;146607;623;46020;-69
2022/06/16 04:13:24;;;;;;;;;21.50;20.00;;;;;22.99;60.94;101237.75;146610;602;46018;-68
2022/06/16 04:16:16;;;;;;;;;38.50;32.25;;;;;23.08;61.69;101230.75;146610;659;45020;-76
2022/06/16 04:19:09;;;;;;;;;41.50;30.25;;;;;23.13;61.26;101231.69;146610;567;46008;-75
2022/06/16 04:22:02;;;;;;;;;28.00;25.25;;;;;23.19;60.51;101234.38;146607;569;45021;-74
2022/06/16 04:24:54;;;;;;;;;26.00;24.50;;;;;23.29;60.55;101233.56;146610;563;45018;-74
2022/06/16 04:27:47;;;;;;;;;18.25;18.25;;;;;22.41;60.18;101060.13;146612;759;46008;-81
2022/06/16 04:30:39;;;;;;;;;21.00;19.75;;;;;23.47;60.49;101222.22;146608;607;46018;-80
2022/06/16 04:33:32;;;;;;;;;21.00;20.50;;;;;23.56;61.11;101226.69;146608;564;46020;-80
2022/06/16 04:36:24;;;;;;;;;15.00;15.00;;;;;23.68;60.12;101232.94;146609;584;46019;-80
2022/06/16 04:39:18;;;;;;;;;15.00;14.00;;;;;23.81;59.71;101231.28;146611;622;46008;-74
2022/06/16 04:42:10;;;;;;;;;16.50;16.50;;;;;23.93;59.46;101227.81;146612;590;46018;-72
2022/06/16 04:45:03;;;;;;;;;16.75;16.00;;;;;24.08;59.36;101235.81;146609;594;46020;-72
2022/06/16 04:47:54;;;;;;;;;19.00;17.25;;;;;24.21;59.04;101234.09;146605;603;46018;-72
2022/06/16 04:50:47;;;;;;;;;15.50;15.50;;;;;24.36;58.87;101233.22;146605;655;46021;-72
2022/06/16 04:53:39;;;;;;;;;14.00;14.00;;;;;24.46;58.66;101242.16;146609;661;46008;-78
2022/06/16 04:56:32;;;;;;;;;18.00;16.75;;;;;24.58;58.39;101234.19;146610;718;46011;-76
2022/06/16 04:59:23;;;;;;;;;18.50;16.25;;;;;24.73;57.97;101238.62;146611;681;46018;-74
2022/06/16 05:02:16;;;;;;;;;16.50;15.25;;;;;24.95;57.07;101237.75;146612;573;46008;-75
2022/06/16 05:05:08;;;;;;;;;17.25;15.50;;;;;25.17;56.87;101238.72;146608;575;46010;-78
2022/06/16 05:08:00;;;;;;;;;16.25;13.50;;;;;25.35;56.40;101249.28;146608;737;46020;-77
2022/06/16 05:10:55;;;;;;;;;13.25;13.25;;;;;25.56;56.38;101243.06;146611;576;46008;-77
2022/06/16 05:13:47;;;;;;;;;16.00;14.00;;;;;25.78;55.54;101243.00;146608;563;46021;-78
2022/06/16 05:16:39;;;;;;;;;15.25;14.00;;;;;25.96;54.89;101240.31;146608;646;46008;-75
2022/06/16 05:19:32;;;;;;;;;14.25;13.00;;;;;26.15;54.66;101241.13;146613;647;46008;-75
2022/06/16 05:22:24;;;;;;;;;17.50;15.75;;;;;26.30;54.59;101245.47;146611;571;46018;-74
2022/06/16 05:25:16;;;;;;;;;13.00;12.25;;;;;26.47;54.00;101243.59;146610;581;46020;-71
2022/06/16 05:28:10;;;;;;;;;18.25;16.50;;;;;26.64;53.17;101251.50;146612;668;45923;-84
2022/06/16 05:31:02;;;;;;;;;15.50;13.50;;;;;26.71;52.86;101253.22;146613;583;46008;-74
2022/06/16 05:33:54;;;;;;;;;16.50;16.00;;;;;26.74;52.79;101255.00;146610;651;46008;-71
2022/06/16 05:36:47;;;;;;;;;14.50;13.25;;;;;26.83;52.97;101248.72;146615;594;46008;-71
2022/06/16 05:39:39;;;;;;;;;14.75;13.00;;;;;26.88;52.08;101255.75;146606;571;46018;-71
2022/06/16 05:42:31;;;;;;;;;13.25;12.25;;;;;26.81;52.08;101266.47;146606;587;46021;-71
2022/06/16 05:45:23;;;;;;;;;15.50;14.00;;;;;26.69;53.46;101256.78;146609;595;46018;-71
2022/06/16 05:48:16;;;;;;;;;15.50;13.75;;;;;26.66;53.47;101255.03;146612;585;45021;-71
2022/06/16 05:51:14;;;;;;;;;14.00;13.00;;;;;26.81;52.41;101253.16;146610;625;46008;-70
2022/06/16 05:54:06;;;;;;;;;11.75;11.25;;;;;26.96;51.72;101250.37;146611;604;45049;-69
2022/06/16 05:56:58;;;;;;;;;12.75;11.50;;;;;26.97;52.75;101254.81;146612;583;46008;-70
2022/06/16 05:59:51;;;;;;;;;17.25;15.00;;;;;26.94;52.73;101254.81;146612;723;46020;-71
2022/06/16 06:02:42;;;;;;;;;13.50;12.75;;;;;26.92;52.25;101260.19;146611;644;45919;-70
2022/06/16 06:05:35;;;;;;;;;15.75;13.50;;;;;26.96;51.33;101255.72;146632;674;45010;-70
2022/06/16 06:18:07;;;;;;;;;13.25;12.00;;;;;26.85;51.32;101258.44;146634;622;45010;-70
2022/06/16 06:20:59;;;;;;;;;17.00;14.25;;;;;26.85;51.88;101253.13;146632;588;45923;-71
2022/06/16 06:23:51;;;;;;;;;15.00;12.75;;;;;26.92;51.91;101261.97;146630;656;45010;-71
2022/06/16 06:26:43;;;;;;;;;14.25;13.25;;;;;27.00;51.73;101257.44;146630;573;45010;-73
2022/06/16 06:29:35;;;;;;;;;12.25;12.25;;;;;27.10;51.13;101260.91;146630;604;45026;-71
2022/06/16 06:32:28;;;;;;;;;11.75;11.75;;;;;27.12;51.18;101264.44;146629;672;46008;-71
2022/06/16 06:35:20;;;;;;;;;15.25;15.00;;;;;27.13;50.59;101268.88;146630;573;45010;-72
2022/06/16 06:38:12;;;;;;;;;11.75;11.00;;;;;27.10;50.56;101266.22;146635;730;45008;-71
2022/06/16 06:41:06;;;;;;;;;11.75;11.75;;;;;27.07;50.81;101263.59;146632;684;45011;-73
2022/06/16 06:43:59;;;;;;;;;14.25;11.50;;;;;26.99;49.48;101261.00;146628;601;46010;-70
2022/06/16 06:46:51;;;;;;;;;13.25;12.25;;;;;26.84;50.66;101269.09;146630;569;45020;-70
2022/06/16 06:49:43;;;;;;;;;13.50;12.00;;;;;26.68;51.43;101258.56;146630;728;45010;-73
2022/06/16 06:52:35;;;;;;;;;13.50;12.25;;;;;26.55;51.08;101259.56;146631;564;45010;-72
2022/06/16 06:55:28;;;;;;;;;12.25;12.25;;;;;26.46;52.03;101267.53;146631;594;45011;-76
2022/06/16 06:58:23;;;;;;;;;14.50;11.75;;;;;26.42;52.12;101269.34;146633;627;45010;-74
2022/06/16 07:01:15;;;;;;;;;12.50;11.75;;;;;26.39;52.30;101269.34;146635;578;45010;-68
2022/06/16 07:04:08;;;;;;;;;13.00;12.75;;;;;26.43;51.89;101268.44;146620;572;45027;-71
2022/06/16 07:07:00;;;;;;;;;16.50;14.25;;;;;26.51;51.92;101268.41;146613;569;46008;-72
2022/06/16 07:09:52;;;;;;;;;12.75;11.25;;;;;26.63;50.38;101267.47;146610;573;46008;-73
2022/06/16 07:12:44;;;;;;;;;13.00;12.75;;;;;26.81;50.26;101263.81;146607;586;46008;-71
2022/06/16 07:15:37;;;;;;;;;13.25;13.00;;;;;26.97;50.77;101257.47;146612;648;46008;-73
2022/06/16 07:18:29;;;;;;;;;13.50;13.50;;;;;27.16;50.59;101252.91;146609;576;46019;-72
2022/06/16 07:21:21;;;;;;;;;13.00;13.00;;;;;27.28;49.63;101255.47;146613;628;46008;-72
2022/06/16 07:24:13;;;;;;;;;15.50;12.00;;;;;27.31;49.78;101252.75;146610;594;46008;-72
2022/06/16 07:27:06;;;;;;;;;18.00;15.00;;;;;27.28;49.30;101258.13;146612;701;46008;-72
2022/06/16 07:29:58;;;;;;;;;15.25;15.25;;;;;27.24;49.59;101260.84;146612;657;45040;-72
2022/06/16 07:32:52;;;;;;;;;16.50;16.50;;;;;27.21;51.93;101263.53;146611;590;46008;-73
2022/06/16 07:35:45;;;;;;;;;13.00;13.00;;;;;27.18;52.35;101257.31;146609;589;46010;-74
2022/06/16 07:38:38;;;;;;;;;17.50;16.00;;;;;27.11;53.31;101252.03;146607;603;46020;-73
2022/06/16 07:41:34;;;;;;;;;15.50;14.50;;;;;27.05;52.78;101254.75;146608;647;46008;-72
2022/06/16 07:44:27;;;;;;;;;17.50;16.50;;;;;27.12;53.70;101259.12;146608;582;46020;-73
2022/06/16 07:47:20;;;;;;;;;16.00;14.25;;;;;27.27;53.15;101255.50;146609;600;46008;-72
2022/06/16 07:50:14;;;;;;;;;17.75;14.00;;;;;27.51;53.40;101249.94;146608;627;46008;-73
2022/06/16 07:53:07;;;;;;;;;15.75;14.75;;;;;27.80;51.40;101254.06;146609;652;45923;-75
2022/06/16 07:55:59;;;;;;;;;17.00;17.00;;;;;28.04;51.42;101251.13;146610;597;46008;-73
2022/06/16 07:58:51;;;;;;;;;14.50;14.50;;;;;28.29;49.07;101249.00;146607;598;46018;-73
2022/06/16 08:01:44;;;;;;;;;13.50;13.25;;;;;28.46;49.14;101255.91;146609;643;46010;-72
2022/06/16 08:04:36;;;;;;;;;13.00;12.50;;;;;28.55;48.35;101251.34;146608;657;45018;-73
2022/06/16 08:07:28;;;;;;;;;10.00;10.00;;;;;28.51;48.06;101249.63;146614;564;46020;-73
2022/06/16 08:10:26;;;;;;;;;13.00;12.25;;;;;28.55;48.40;101250.47;146610;640;46008;-75
2022/06/16 08:13:18;;;;;;;;;15.50;15.00;;;;;28.70;47.73;101258.22;146612;639;46010;-73
2022/06/16 08:16:10;;;;;;;;;12.75;12.25;;;;;28.67;48.18;101257.41;146607;653;46019;-72
2022/06/16 08:19:03;;;;;;;;;13.75;13.75;;;;;28.69;48.10;101250.22;146609;576;46020;-73
2022/06/16 08:21:55;;;;;;;;;13.75;12.50;;;;;28.77;50.14;101245.66;146612;573;45026;-77
2022/06/16 08:24:48;;;;;;;;;14.00;13.00;;;;;28.85;49.39;101246.44;146608;657;47008;-74
2022/06/16 08:27:41;;;;;;;;;12.75;12.75;;;;;28.85;47.64;101257.13;146610;581;46923;-71
2022/06/16 08:30:35;;;;;;;;;13.00;12.00;;;;;28.85;47.52;101257.13;146609;577;46020;-72
2022/06/16 08:33:27;;;;;;;;;15.75;14.75;;;;;28.65;48.06;101267.19;146607;581;46019;-73
2022/06/16 08:36:19;;;;;;;;;11.75;11.50;;;;;28.34;48.91;101267.59;146610;564;45020;-73
2022/06/16 08:39:12;;;;;;;;;12.75;12.75;;;;;28.20;50.18;101266.94;146609;739;46018;-72
2022/06/16 08:42:40;;;;;;;;;14.75;14.00;;;;;28.08;48.85;101271.50;146611;676;46020;-73
2022/06/16 08:45:39;;;;;;;;;11.75;10.00;;;;;27.91;50.39;101261.94;146616;595;45922;-83
2022/06/16 08:49:13;;;;;;;;;13.50;11.25;;;;;27.87;50.97;101263.75;146610;593;46020;-78
2022/06/16 08:52:34;;;;;;;;;13.75;12.25;;;;;27.61;50.72;101226.72;146609;705;46008;-82
2022/06/16 08:56:12;;;;;;;;;11.75;11.00;;;;;27.20;51.22;101083.38;146610;569;46021;-80
2022/06/16 08:59:33;;;;;;;;;13.00;11.25;;;;;28.68;49.87;101261.81;146612;688;45923;-78
2022/06/16 09:02:56;;;;;;;;;10.25;10.25;;;;;27.75;49.15;101074.69;146615;662;46008;-77
2022/06/16 09:06:15;;;;;;;;;12.25;11.50;;;;;28.65;50.15;101251.19;146630;641;45018;-85
2022/06/16 09:10:17;;;;;;;;;9.75;9.75;;;;;28.60;51.01;101269.97;146634;624;45022;-78
2022/06/16 09:13:50;;;;;;;;;12.75;11.00;;;;;28.29;51.68;101273.00;146630;677;46010;-80
2022/06/16 09:17:29;;;;;;;;;12.00;11.00;;;;;25.98;52.95;100961.31;146632;581;45020;-82
2022/06/16 09:20:55;;;;;;;;;11.25;11.25;;;;;26.78;53.42;101184.00;146630;620;45018;-81
2022/06/16 09:24:14;;;;;;;;;13.75;12.25;;;;;27.11;55.68;101279.53;146631;591;45021;-76
2022/06/16 09:27:29;;;;;;;;;13.00;11.75;;;;;26.88;56.52;101294.78;146626;683;46008;-78
2022/06/16 09:30:26;;;;;;;;;12.50;12.50;;;;;26.64;58.94;101312.69;146629;582;45031;-81
2022/06/16 09:33:45;;;;;;;;;19.50;18.50;;;;;26.57;62.22;101324.22;146631;678;45018;-81
2022/06/16 09:36:47;;;;;;;;;20.50;19.00;;;;;26.38;60.81;101325.19;146632;569;45020;-82
2022/06/16 09:39:47;;;;;;;;;14.75;14.50;;;;;26.07;62.09;101304.03;146624;662;45019;-79
2022/06/16 09:42:45;;;;;;;;;14.50;12.75;;;;;25.88;61.59;101315.63;146631;577;45020;-81
2022/06/16 09:45:48;;;;;;;;;15.25;13.50;;;;;25.69;62.54;101318.28;146627;670;46943;-83
2022/06/16 09:48:59;;;;;;;;;20.00;17.50;;;;;25.63;64.39;101326.25;146633;579;44021;-80
2022/06/16 09:52:28;;;;;;;;;16.75;15.75;;;;;24.54;62.06;101139.63;146629;599;46010;-83
2022/06/16 09:55:51;;;;;;;;;21.00;19.25;;;;;25.59;64.44;101327.16;146628;625;45021;-80
2022/06/16 09:58:52;;;;;;;;;19.00;17.50;;;;;25.49;64.40;101328.06;146632;640;45922;-79
2022/06/16 10:02:15;;;;;;;;;18.00;16.00;;;;;25.42;63.60;101337.78;146632;674;46008;-80
2022/06/16 10:05:16;;;;;;;;;20.50;19.00;;;;;25.39;66.14;101331.56;146610;613;46010;-74
2022/06/16 10:08:30;;;;;;;;;19.00;18.00;;;;;25.38;64.52;101327.16;146613;579;46008;-75
2022/06/16 10:11:48;;;;;;;;;16.75;16.75;;;;;25.40;65.51;101325.41;146611;585;45010;-76
2022/06/16 10:15:29;;;;;;;;;18.25;17.50;;;;;23.52;63.02;100992.87;146610;641;46008;-76
2022/06/16 10:18:22;;;;;;;;;14.75;14.75;;;;;25.47;64.17;101322.72;146608;569;46010;-76
2022/06/16 10:21:17;;;;;;;;;16.00;15.75;;;;;25.55;63.69;101314.78;146609;682;46010;-76
2022/06/16 10:24:11;;;;;;;;;16.75;16.25;;;;;25.61;64.67;101305.88;146610;615;47019;-75
2022/06/16 10:27:03;;;;;;;;;23.25;20.00;;;;;25.63;66.13;101302.34;146607;579;46020;-76
2022/06/16 10:29:59;;;;;;;;;19.25;18.00;;;;;25.65;66.17;101305.03;146609;591;46008;-75
2022/06/16 10:33:03;;;;;;;;;23.75;21.75;;;;;25.68;64.75;101303.25;146609;578;46008;-76
2022/06/16 10:36:18;;;;;;;;;17.75;17.75;;;;;25.78;64.82;101306.75;146611;716;46010;-76
2022/06/16 10:39:30;;;;;;;;;18.00;16.75;;;;;25.97;62.16;101297.00;146612;689;45039;-77
2022/06/16 10:42:40;;;;;;;;;15.75;15.75;;;;;26.20;61.28;101303.12;146610;574;46008;-76
2022/06/16 10:45:36;;;;;;;;;16.25;16.25;;;;;25.55;61.29;101150.12;146611;629;46020;-78
2022/06/16 10:48:40;;;;;;;;;15.50;14.25;;;;;26.68;58.15;101309.09;146607;688;46018;-78
2022/06/16 10:51:36;;;;;;;;;21.00;18.50;;;;;26.88;61.28;101308.09;146611;571;46008;-78
2022/06/16 10:54:35;;;;;;;;;17.50;16.00;;;;;27.10;58.65;101304.41;146609;666;46008;-77
2022/06/16 10:57:33;;;;;;;;;23.25;20.75;;;;;27.34;60.10;101306.00;146607;593;45020;-77
2022/06/16 11:00:27;;;;;;;;;17.25;16.25;;;;;27.67;60.51;101297.72;146608;593;46008;-77
2022/06/16 11:03:21;;;;;;;;;19.75;18.00;;;;;27.90;58.85;101286.84;146608;582;47008;-78
2022/06/16 11:06:20;;;;;;;;;16.50;16.50;;;;;28.14;59.71;101288.34;146608;573;46008;-78
2022/06/16 11:09:12;;;;;;;;;19.00;18.00;;;;;28.21;54.98;101272.22;146607;612;46008;-77
2022/06/16 11:12:17;;;;;;;;;17.50;14.50;;;;;28.28;55.41;101259.69;146610;665;46008;-77
2022/06/16 11:15:34;;;;;;;;;18.25;17.25;;;;;28.31;54.66;101247.19;146608;596;46020;-79
2022/06/16 11:18:29;;;;;;;;;23.25;20.00;;;;;28.19;54.36;101244.69;146603;573;46019;-76
2022/06/16 11:21:32;;;;;;;;;18.00;18.00;;;;;28.06;54.76;101238.62;146608;584;46008;-78
2022/06/16 11:24:34;;;;;;;;;19.50;18.25;;;;;28.01;54.40;101232.50;146605;570;47008;-78
2022/06/16 11:27:28;;;;;;;;;21.75;20.00;;;;;28.01;55.44;101234.28;146607;661;46008;-76
2022/06/16 11:30:43;;;;;;;;;19.50;16.75;;;;;27.98;55.85;101237.00;146607;583;46010;-77
2022/06/16 11:37:35;;;;;;;;;21.75;20.75;;;;;25.76;54.87;100939.31;146605;609;46018;-78
2022/06/16 11:40:53;;;;;;;;;19.00;17.00;;;;;27.38;56.49;101264.22;146606;563;46029;-77
2022/06/16 11:44:39;;;;;;;;;20.75;19.25;;;;;25.23;57.46;100921.97;146607;600;46008;-77
2022/06/16 11:48:17;;;;;;;;;20.75;19.00;;;;;25.98;57.26;101081.78;146606;624;47006;-77
2022/06/16 11:51:40;;;;;;;;;18.00;18.00;;;;;25.98;58.45;101086.19;146604;570;46018;-77
2022/06/16 11:55:05;;;;;;;;;16.50;16.50;;;;;27.06;58.74;101260.06;146606;603;46027;-76
2022/06/16 11:58:24;;;;;;;;;21.25;18.25;;;;;27.16;57.21;101247.56;146605;607;47008;-77
2022/06/16 12:01:23;;;;;;;;;14.00;14.00;;;;;27.28;56.72;101247.47;146605;617;47008;-76
2022/06/16 12:04:59;;;;;;;;;17.25;16.25;;;;;27.46;57.40;101237.53;146606;577;47008;-77
2022/06/16 12:08:13;;;;;;;;;15.00;15.00;;;;;27.61;57.25;101235.59;146607;569;46008;-76
2022/06/16 12:11:41;;;;;;;;;15.25;15.00;;;;;26.74;55.11;101070.56;146604;617;46922;-76
2022/06/16 12:15:14;;;;;;;;;18.25;17.00;;;;;27.78;55.38;101247.88;146607;598;47008;-72
2022/06/16 12:18:54;;;;;;;;;16.50;15.75;;;;;26.77;55.27;101062.53;146607;620;46008;-72
2022/06/16 12:21:56;;;;;;;;;16.25;16.25;;;;;27.84;55.46;101234.47;146608;569;46021;-73
2022/06/16 12:25:23;;;;;;;;;14.00;12.00;;;;;26.92;54.70;101079.22;146607;635;46008;-74
2022/06/16 12:29:13;;;;;;;;;15.75;14.00;;;;;27.91;55.64;101237.94;146606;564;46020;-72
2022/06/16 12:33:01;;;;;;;;;16.50;14.00;;;;;27.62;54.55;101169.88;146606;578;47008;-76
2022/06/16 12:36:18;;;;;;;;;16.00;16.00;;;;;26.93;55.21;101054.37;146606;724;46008;-78
2022/06/16 12:39:39;;;;;;;;;14.75;13.25;;;;;26.92;54.67;101067.72;146605;591;47008;-80
2022/06/16 12:42:39;;;;;;;;;10.50;9.50;;;;;27.95;56.75;101237.91;146608;579;46020;-79
2022/06/16 12:45:38;;;;;;;;;13.25;11.00;;;;;27.99;56.67;101234.28;146604;604;47008;-80
2022/06/16 12:48:38;;;;;;;;;10.25;10.00;;;;;28.04;56.77;101232.47;146606;582;46020;-79
2022/06/16 12:51:37;;;;;;;;;11.25;11.25;;;;;28.09;56.13;101230.59;146603;601;46018;-80
2022/06/16 12:54:36;;;;;;;;;11.50;10.75;;;;;28.13;55.18;101220.81;146607;575;46008;-79
2022/06/16 12:57:35;;;;;;;;;13.00;12.50;;;;;28.13;54.03;101220.81;146605;645;46018;-79
2022/06/16 13:00:33;;;;;;;;;7.75;7.25;;;;;28.14;54.32;101225.22;146606;621;46010;-79
2022/06/16 13:04:04;;;;;;;;;8.75;8.75;;;;;27.02;53.43;101026.78;146606;601;46010;-79
2022/06/16 13:06:59;;;;;;;;;10.75;10.75;;;;;28.14;54.07;101232.34;146606;643;46008;-79
2022/06/16 13:09:51;;;;;;;;;12.75;12.25;;;;;28.15;53.88;101215.44;146604;581;46922;-78
2022/06/16 13:12:46;;;;;;;;;9.25;9.25;;;;;28.25;54.68;101219.72;146607;582;46026;-80
2022/06/16 13:15:49;;;;;;;;;10.50;10.50;;;;;28.17;54.16;101187.84;146606;578;46018;-80
2022/06/16 13:18:58;;;;;;;;;9.50;9.25;;;;;28.44;54.09;101213.28;146609;628;45020;-78
2022/06/16 13:22:01;;;;;;;;;11.50;11.25;;;;;28.46;53.56;101211.44;146605;598;46923;-78
2022/06/16 13:24:59;;;;;;;;;11.00;11.00;;;;;28.52;54.04;101221.16;146606;569;47008;-78
2022/06/16 13:27:55;;;;;;;;;9.00;9.00;;;;;28.55;52.78;101218.44;146605;552;46027;-78
2022/06/16 13:31:04;;;;;;;;;11.00;10.00;;;;;28.56;53.44;101212.19;146607;569;46008;-78
2022/06/16 13:34:18;;;;;;;;;11.50;11.50;;;;;28.64;54.04;101210.28;146609;640;46008;-79
2022/06/16 13:37:10;;;;;;;;;12.25;11.75;;;;;28.66;53.61;101211.16;146608;612;45021;-79
2022/06/16 13:40:30;;;;;;;;;11.75;11.75;;;;;28.66;52.95;101207.59;146608;670;45922;-79
2022/06/16 13:43:24;;;;;;;;;12.00;12.00;;;;;28.65;53.67;101204.03;146607;584;46021;-79
2022/06/16 13:46:16;;;;;;;;;14.25;12.25;;;;;28.67;54.04;101201.38;146606;613;46018;-79
2022/06/16 13:49:09;;;;;;;;;12.00;12.00;;;;;28.71;53.45;101203.06;146606;595;47008;-81
2022/06/16 13:52:21;;;;;;;;;15.75;14.75;;;;;28.73;53.21;101191.47;146608;592;46008;-79
2022/06/16 13:55:32;;;;;;;;;15.50;14.50;;;;;28.78;53.29;101194.94;146606;679;46020;-79
2022/06/16 13:58:38;;;;;;;;;13.50;11.75;;;;;28.84;52.61;101198.41;146604;573;46922;-80